createdAt,value
2023-02-04T00:17:56.916Z,2.40
2023-02-04T00:28:04.462Z,1.85
2023-02-04T00:38:11.705Z,1.56
2023-02-04T00:48:18.789Z,1.42
2023-02-04T00:58:24.946Z,1.29
2023-02-04T01:08:32.062Z,1.32
2023-02-04T01:18:40.200Z,1.42
2023-02-04T01:28:47.330Z,1.46
2023-02-04T01:38:54.791Z,1.39
2023-02-04T01:49:02.349Z,1.25
2023-02-04T01:59:11.927Z,1.05
2023-02-04T02:09:19.604Z,0.89
2023-02-04T02:19:25.380Z,0.78
2023-02-04T02:29:32.742Z,0.71
2023-02-04T02:39:41.268Z,0.64
2023-02-04T02:49:51.535Z,0.54
2023-02-04T02:59:59.011Z,0.31
2023-02-04T03:10:07.267Z,-0.13
2023-02-04T03:20:16.722Z,-0.40
2023-02-04T03:30:24.726Z,-0.61
2023-02-04T03:40:32.144Z,-0.80
2023-02-04T03:50:39.756Z,-0.99
2023-02-04T04:00:47.234Z,-1.06
2023-02-04T04:10:54.593Z,-1.20
2023-02-04T04:21:02.049Z,-1.32
2023-02-04T04:31:09.545Z,-1.39
2023-02-04T04:41:16.950Z,-1.46
2023-02-04T04:51:24.126Z,-1.54
2023-02-04T05:01:31.314Z,-1.53
2023-02-04T05:11:38.598Z,-1.51
2023-02-04T05:21:45.700Z,-1.51
2023-02-04T05:31:52.935Z,-1.50
2023-02-04T05:42:00.354Z,-1.53
2023-02-04T05:52:08.089Z,-1.54
2023-02-04T06:02:15.030Z,-1.55
2023-02-04T06:12:22.648Z,-1.55
2023-02-04T06:22:30.069Z,-1.64
2023-02-04T06:32:37.834Z,-1.65
2023-02-04T06:42:45.030Z,-1.63
2023-02-04T06:52:52.188Z,-1.58
2023-02-04T07:13:06.545Z,-1.57
2023-02-04T07:23:14.037Z,-1.54
2023-02-04T07:33:20.217Z,-1.46
2023-02-04T07:43:27.453Z,-1.44
2023-02-04T07:53:35.129Z,-1.07
2023-02-04T08:03:43.188Z,-0.61
2023-02-04T08:13:49.337Z,-0.99
2023-02-04T08:23:57.088Z,-1.20
2023-02-04T08:34:05.000Z,-1.05
2023-02-04T08:44:12.175Z,-0.37
2023-02-04T08:54:19.493Z,0.01
2023-02-04T09:04:26.755Z,0.35
2023-02-04T09:14:33.963Z,0.69
2023-02-04T09:24:41.287Z,0.64
2023-02-04T09:34:48.875Z,0.23
2023-02-04T09:44:56.284Z,0.48
2023-02-04T09:55:03.786Z,0.07
2023-02-04T10:05:15.362Z,-0.06
2023-02-04T10:15:23.644Z,-0.12
2023-02-04T10:25:30.929Z,-0.38
2023-02-04T10:35:46.461Z,-0.30
2023-02-04T10:45:56.671Z,0.32
2023-02-04T10:56:13.578Z,0.12
2023-02-04T11:06:25.161Z,0.18
2023-02-04T11:16:35.944Z,0.36
2023-02-04T11:26:40.627Z,0.29
2023-02-04T11:36:56.239Z,0.32
2023-02-04T11:47:08.276Z,0.12
2023-02-04T11:57:14.098Z,-0.08
2023-02-04T12:07:23.397Z,-0.05
2023-02-04T12:17:31.227Z,-0.08
2023-02-04T12:27:38.748Z,-0.15
2023-02-04T12:37:46.299Z,-0.44
2023-02-04T12:47:52.577Z,-0.51
2023-02-04T12:57:59.139Z,-0.61
2023-02-04T13:08:05.201Z,-0.87
2023-02-04T13:18:12.563Z,-0.84
2023-02-04T13:28:32.955Z,-0.73
2023-02-04T13:48:45.799Z,-0.81
2023-02-04T13:58:53.035Z,-0.87
2023-02-04T14:09:01.141Z,-0.62
2023-02-04T14:19:09.485Z,-0.62
2023-02-04T14:29:16.477Z,-0.83
2023-02-04T14:39:22.593Z,-0.77
2023-02-04T14:49:29.811Z,-0.96
2023-02-04T14:59:38.215Z,-1.17
2023-02-04T15:09:46.311Z,-1.24
2023-02-04T15:19:53.825Z,-1.23
2023-02-04T15:30:01.126Z,-1.33
2023-02-04T15:40:09.026Z,-1.59
2023-02-04T15:50:16.515Z,-1.74
2023-02-04T16:00:24.369Z,-1.71
2023-02-04T16:10:32.173Z,-1.71
2023-02-04T16:20:40.229Z,-1.75
2023-02-04T16:30:46.426Z,-1.78
2023-02-04T16:40:53.621Z,-1.77
2023-02-04T16:51:01.000Z,-1.84
2023-02-04T17:01:08.722Z,-1.93
2023-02-04T17:11:32.158Z,-1.99
2023-02-04T17:21:40.039Z,-1.96
2023-02-04T17:31:47.254Z,-1.89
2023-02-04T17:41:54.517Z,-1.81
2023-02-04T17:52:02.071Z,-1.82
2023-02-04T18:02:11.536Z,-1.83
2023-02-04T18:12:20.598Z,-1.77
2023-02-04T18:22:29.283Z,-1.79
2023-02-04T18:32:34.176Z,-1.84
2023-02-04T18:42:43.641Z,-1.86
2023-02-04T18:52:51.081Z,-1.95
2023-02-04T19:02:56.580Z,-2.05
2023-02-04T19:13:02.169Z,-2.13
2023-02-04T19:23:15.649Z,-2.33
2023-02-04T19:33:21.365Z,-2.48
2023-02-04T19:43:34.996Z,-2.58
2023-02-04T19:53:42.116Z,-2.68
2023-02-04T20:03:50.880Z,-2.74
2023-02-04T20:13:56.018Z,-2.67
2023-02-04T20:24:07.093Z,-2.68
2023-02-04T20:34:22.353Z,-2.83
2023-02-04T20:44:30.259Z,-2.82
2023-02-04T20:54:37.319Z,-2.80
2023-02-04T21:04:47.221Z,-2.77
2023-02-04T21:14:54.680Z,-2.85
2023-02-04T21:25:02.215Z,-2.94
2023-02-04T21:35:07.088Z,-2.87
2023-02-04T21:45:14.219Z,-2.78
2023-02-04T21:55:23.008Z,-2.75
2023-02-04T22:05:30.162Z,-2.79
2023-02-04T22:15:37.251Z,-2.72
2023-02-04T22:25:44.430Z,-2.68
2023-02-04T22:35:51.508Z,-2.65
2023-02-04T22:45:59.681Z,-2.64
2023-02-04T22:56:07.255Z,-2.69
2023-02-04T23:06:13.727Z,-2.73
2023-02-04T23:16:21.056Z,-2.68
2023-02-04T23:26:28.538Z,-2.66
2023-02-04T23:36:36.802Z,-2.72
2023-02-04T23:46:45.172Z,-2.82
2023-02-04T23:56:52.951Z,-2.89
